Time;durP1;ratioP1;P1;durP2;ratioP2;P2;SDS_P1;SDS_P2;PMS_P1;PMS_P2;Temp;Humidity;BMP_temperature;BMP_pressure;BME280_temperature;BME280_humidity;BME280_pressure;Samples;Min_cycle;Max_cycle;Signal;HPM_P1;HPM_P2
2022/02/19 00:00:57;;;;;;;;;;;13.80;73.80;;;;;;4979812;28;20172;-64
2022/02/19 00:03:23;;;;;;;;;;;13.80;73.40;;;;;;4979903;28;19910;-64
2022/02/19 00:05:48;;;;;;;;;;;13.80;73.40;;;;;;4979915;28;19910;-64
2022/02/19 00:08:14;;;;;;;;;;;13.90;74.00;;;;;;4979859;28;19901;-64
2022/02/19 00:10:40;;;;;;;;;;;13.80;73.10;;;;;;4979746;28;19902;-64
2022/02/19 00:13:06;;;;;;;;;;;13.80;73.00;;;;;;4979721;28;19942;-65
2022/02/19 00:15:32;;;;;;;;;;;13.80;73.10;;;;;;4979635;28;19921;-63
2022/02/19 00:17:57;;;;;;;;;;;13.80;73.20;;;;;;4979645;28;19909;-64
2022/02/19 00:20:23;;;;;;;;;;;13.80;73.30;;;;;;4979634;28;19910;-64
2022/02/19 00:22:49;;;;;;;;;;;13.80;73.20;;;;;;4979501;28;19906;-64
2022/02/19 00:25:14;;;;;;;;;;;13.80;73.40;;;;;;4979554;28;19902;-63
2022/02/19 00:27:40;;;;;;;;;;;13.80;73.40;;;;;;4979561;28;20200;-63
2022/02/19 00:30:06;;;;;;;;;;;13.80;73.40;;;;;;4979468;28;19902;-63
2022/02/19 00:32:32;;;;;;;;;;;13.80;73.40;;;;;;4979470;28;19921;-64
2022/02/19 00:34:58;;;;;;;;;;;13.80;73.50;;;;;;4979444;28;19913;-64
2022/02/19 00:37:24;;;;;;;;;;;13.70;73.40;;;;;;4978132;28;19902;-64
2022/02/19 00:39:49;;;;;;;;;;;13.80;73.40;;;;;;4979397;28;20181;-63
2022/02/19 00:42:15;;;;;;;;;;;13.70;73.60;;;;;;4979029;28;19921;-64
2022/02/19 00:44:41;;;;;;;;;;;13.70;73.30;;;;;;4979246;28;20198;-64
2022/02/19 00:47:06;;;;;;;;;;;13.70;73.40;;;;;;4977974;28;20115;-64
2022/02/19 00:49:32;;;;;;;;;;;13.70;73.50;;;;;;4979232;28;20483;-64
2022/02/19 00:51:58;;;;;;;;;;;13.70;73.40;;;;;;4979155;28;20249;-64
2022/02/19 00:54:24;;;;;;;;;;;13.70;73.50;;;;;;4979056;28;19981;-63
2022/02/19 00:56:49;;;;;;;;;;;13.70;73.30;;;;;;4979110;28;19902;-64
2022/02/19 00:59:15;;;;;;;;;;;13.70;73.40;;;;;;4979019;28;19909;-64
2022/02/19 01:01:40;;;;;;;;;;;13.70;73.50;;;;;;4977767;28;19906;-64
2022/02/19 01:04:06;;;;;;;;;;;13.70;73.20;;;;;;4978901;28;19902;-64
2022/02/19 01:06:32;;;;;;;;;;;13.70;73.40;;;;;;4977639;28;20173;-65
2022/02/19 01:08:58;;;;;;;;;;;13.80;73.40;;;;;;4978838;28;19932;-64
2022/02/19 01:11:23;;;;;;;;;;;13.70;73.40;;;;;;4978834;28;20206;-64
2022/02/19 01:13:49;;;;;;;;;;;13.70;73.30;;;;;;4978818;28;19902;-64
2022/02/19 01:16:15;;;;;;;;;;;13.70;73.40;;;;;;4978722;28;19902;-64
2022/02/19 01:18:41;;;;;;;;;;;13.70;73.40;;;;;;4978740;28;19941;-64
2022/02/19 01:21:06;;;;;;;;;;;13.80;73.40;;;;;;4978551;28;19910;-64
2022/02/19 01:23:32;;;;;;;;;;;13.70;73.30;;;;;;4978662;28;20221;-64
2022/02/19 01:25:57;;;;;;;;;;;13.70;73.50;;;;;;4978626;28;20369;-63
2022/02/19 01:28:23;;;;;;;;;;;13.80;73.90;;;;;;4977976;28;19917;-64
2022/02/19 01:30:49;;;;;;;;;;;13.70;73.10;;;;;;4977275;28;19909;-63
2022/02/19 01:33:14;;;;;;;;;;;13.70;73.20;;;;;;4978457;28;19933;-64
2022/02/19 01:35:40;;;;;;;;;;;13.70;73.20;;;;;;4978413;28;19902;-64
2022/02/19 01:38:05;;;;;;;;;;;13.70;73.50;;;;;;4978351;28;19902;-64
2022/02/19 01:40:31;;;;;;;;;;;13.70;73.60;;;;;;4978354;28;19902;-64
2022/02/19 01:42:57;;;;;;;;;;;13.70;73.40;;;;;;4978301;28;19950;-64
2022/02/19 01:45:22;;;;;;;;;;;13.70;73.60;;;;;;4978330;28;19910;-64
2022/02/19 01:47:48;;;;;;;;;;;13.70;73.20;;;;;;4978252;28;19910;-64
2022/02/19 01:50:14;;;;;;;;;;;13.70;73.40;;;;;;4978239;28;19909;-64
2022/02/19 01:52:41;;;;;;;;;;;13.70;73.60;;;;;;4978159;28;20261;-64
2022/02/19 01:55:07;;;;;;;;;;;13.70;73.30;;;;;;4976897;28;19924;-64
2022/02/19 01:57:32;;;;;;;;;;;13.70;73.20;;;;;;4978202;28;20560;-64
2022/02/19 01:59:58;;;;;;;;;;;13.70;73.20;;;;;;4978146;28;19922;-65
2022/02/19 02:02:24;;;;;;;;;;;13.80;73.80;;;;;;4978005;28;19993;-64
2022/02/19 02:04:50;;;;;;;;;;;13.80;73.60;;;;;;4976793;28;20183;-64
2022/02/19 02:07:16;;;;;;;;;;;13.80;73.00;;;;;;4978030;28;19902;-64
2022/02/19 02:09:42;;;;;;;;;;;13.70;73.10;;;;;;4978103;28;19925;-64
2022/02/19 02:12:07;;;;;;;;;;;13.70;73.60;;;;;;4977984;28;19941;-64
2022/02/19 02:14:37;;;;;;;;;;;13.80;73.50;;;;;;4977968;28;19917;-64
2022/02/19 02:17:03;;;;;;;;;;;13.70;73.00;;;;;;4977597;28;19917;-64
2022/02/19 02:19:28;;;;;;;;;;;13.80;73.40;;;;;;4977859;28;19910;-64
2022/02/19 02:21:54;;;;;;;;;;;13.70;72.80;;;;;;4977773;28;19964;-64
2022/02/19 02:24:20;;;;;;;;;;;13.70;73.40;;;;;;4977872;28;19941;-64
2022/02/19 02:26:46;;;;;;;;;;;13.80;73.20;;;;;;4977768;28;19902;-64
2022/02/19 02:29:12;;;;;;;;;;;13.70;72.80;;;;;;4977780;28;19973;-63
2022/02/19 02:31:37;;;;;;;;;;;13.80;73.20;;;;;;4977743;28;19972;-64
2022/02/19 02:34:03;;;;;;;;;;;13.80;73.00;;;;;;4977720;28;20106;-63
2022/02/19 02:36:28;;;;;;;;;;;13.70;72.70;;;;;;4977697;28;19902;-63
2022/02/19 02:38:57;;;;;;;;;;;13.70;72.80;;;;;;4977663;28;19956;-63
2022/02/19 02:41:23;;;;;;;;;;;13.70;73.00;;;;;;4979975;28;19922;-64
2022/02/19 02:43:48;;;;;;;;;;;13.70;72.80;;;;;;4980980;28;20140;-64
2022/02/19 02:46:14;;;;;;;;;;;13.80;73.00;;;;;;4980890;28;19902;-63
2022/02/19 02:48:40;;;;;;;;;;;13.80;72.80;;;;;;4980959;28;19902;-63
2022/02/19 02:51:07;;;;;;;;;;;13.80;73.10;;;;;;4980864;28;19902;-64
2022/02/19 02:53:32;;;;;;;;;;;13.80;73.60;;;;;;4980846;28;19992;-64
2022/02/19 02:55:58;;;;;;;;;;;13.80;73.30;;;;;;4979815;28;19910;-64
2022/02/19 02:58:23;;;;;;;;;;;13.80;72.60;;;;;;4980733;28;19991;-64
2022/02/19 03:00:49;;;;;;;;;;;13.80;73.30;;;;;;4980697;28;19902;-64
2022/02/19 03:03:15;;;;;;;;;;;13.90;73.20;;;;;;4980678;28;20315;-64
2022/02/19 03:05:41;;;;;;;;;;;13.80;72.30;;;;;;4980645;28;19973;-64
2022/02/19 03:08:07;;;;;;;;;;;13.80;73.20;;;;;;4980594;28;19910;-64
2022/02/19 03:10:33;;;;;;;;;;;13.80;73.00;;;;;;4979457;28;19958;-64
2022/02/19 03:12:59;;;;;;;;;;;13.90;73.20;;;;;;4980549;28;20194;-64
2022/02/19 03:15:24;;;;;;;;;;;13.80;72.30;;;;;;4980526;28;19984;-63
2022/02/19 03:17:50;;;;;;;;;;;13.70;72.40;;;;;;4980484;28;19925;-64
2022/02/19 03:20:17;;;;;;;;;;;13.80;73.20;;;;;;4980353;28;19902;-63
2022/02/19 03:22:44;;;;;;;;;;;13.70;73.20;;;;;;4980331;28;19921;-64
2022/02/19 03:25:11;;;;;;;;;;;13.70;73.30;;;;;;4979090;28;20101;-64
2022/02/19 03:27:36;;;;;;;;;;;13.70;73.10;;;;;;4980283;28;19944;-64
2022/02/19 03:30:02;;;;;;;;;;;13.70;73.00;;;;;;4980327;28;19910;-64
2022/02/19 03:32:28;;;;;;;;;;;13.70;72.70;;;;;;4980245;28;19917;-65
2022/02/19 03:34:53;;;;;;;;;;;13.60;72.80;;;;;;4980162;28;19960;-64
2022/02/19 03:37:19;;;;;;;;;;;13.70;72.90;;;;;;4980195;28;20139;-64
2022/02/19 03:39:45;;;;;;;;;;;13.70;73.40;;;;;;4980042;28;19924;-65
2022/02/19 03:42:10;;;;;;;;;;;13.70;73.30;;;;;;4979966;28;19936;-64
2022/02/19 03:44:36;;;;;;;;;;;13.70;73.00;;;;;;4978868;28;19993;-65
2022/02/19 03:47:02;;;;;;;;;;;13.60;73.00;;;;;;4980091;28;20190;-64
2022/02/19 03:49:27;;;;;;;;;;;13.70;72.70;;;;;;4979976;28;19910;-65
2022/02/19 03:51:53;;;;;;;;;;;13.60;72.80;;;;;;4979546;28;19924;-64
2022/02/19 03:54:18;;;;;;;;;;;13.50;73.00;;;;;;4979930;28;20251;-64
2022/02/19 03:56:44;;;;;;;;;;;13.50;73.10;;;;;;4979920;28;20272;-63
2022/02/19 03:59:14;;;;;;;;;;;13.60;73.20;;;;;;4979864;28;19902;-64
2022/02/19 04:01:43;;;;;;;;;;;13.60;72.90;;;;;;4979810;28;19977;-64
2022/02/19 04:04:08;;;;;;;;;;;13.60;73.10;;;;;;4979826;28;19910;-64
2022/02/19 04:06:34;;;;;;;;;;;13.70;73.40;;;;;;4979773;28;20198;-64
2022/02/19 04:09:00;;;;;;;;;;;13.60;72.70;;;;;;4979712;28;20190;-63
2022/02/19 04:11:26;;;;;;;;;;;13.60;72.80;;;;;;4979643;28;19902;-63
2022/02/19 04:13:51;;;;;;;;;;;13.50;73.00;;;;;;4979684;28;19902;-64
2022/02/19 04:16:17;;;;;;;;;;;13.50;73.10;;;;;;4979491;28;19925;-64
2022/02/19 04:18:42;;;;;;;;;;;13.40;73.20;;;;;;4979541;28;19910;-64
2022/02/19 04:21:08;;;;;;;;;;;13.50;73.40;;;;;;4979408;28;20275;-64
2022/02/19 04:23:34;;;;;;;;;;;13.50;73.40;;;;;;4979660;28;19910;-64
2022/02/19 04:25:59;;;;;;;;;;;13.50;73.50;;;;;;4979497;28;19902;-64
2022/02/19 04:28:26;;;;;;;;;;;13.40;73.40;;;;;;4979424;28;19908;-64
2022/02/19 04:30:52;;;;;;;;;;;13.40;73.50;;;;;;4979339;28;19948;-64
2022/02/19 04:33:18;;;;;;;;;;;13.40;73.40;;;;;;4979292;28;19956;-64
2022/02/19 04:35:45;;;;;;;;;;;13.40;73.50;;;;;;4979232;28;19945;-63
2022/02/19 04:38:14;;;;;;;;;;;13.40;73.60;;;;;;4979270;28;19969;-64
2022/02/19 04:40:40;;;;;;;;;;;13.40;73.50;;;;;;4979055;28;19973;-64
2022/02/19 04:43:05;;;;;;;;;;;13.40;73.40;;;;;;4979145;28;19910;-64
2022/02/19 04:45:31;;;;;;;;;;;13.40;73.50;;;;;;4979160;28;19910;-64
2022/02/19 04:47:57;;;;;;;;;;;13.40;73.40;;;;;;4979050;28;20371;-64
2022/02/19 04:50:23;;;;;;;;;;;13.40;73.40;;;;;;4979039;28;19945;-64
2022/02/19 04:52:48;;;;;;;;;;;13.40;73.40;;;;;;4979057;28;20133;-64
2022/02/19 04:55:14;;;;;;;;;;;13.40;73.40;;;;;;4978941;28;20244;-64
2022/02/19 04:57:44;;;;;;;;;;;13.50;73.50;;;;;;4978984;28;19910;-64
2022/02/19 05:00:11;;;;;;;;;;;13.40;73.50;;;;;;4978930;28;19902;-63
2022/02/19 05:02:37;;;;;;;;;;;13.40;73.50;;;;;;4977824;28;19913;-64
2022/02/19 05:05:02;;;;;;;;;;;13.40;73.50;;;;;;4978914;28;20225;-64
2022/02/19 05:07:28;;;;;;;;;;;13.40;73.40;;;;;;4978824;28;19917;-64
2022/02/19 05:09:54;;;;;;;;;;;13.40;73.50;;;;;;4978767;28;20186;-64
2022/02/19 05:12:19;;;;;;;;;;;13.40;73.40;;;;;;4978786;28;19902;-64
2022/02/19 05:14:45;;;;;;;;;;;13.40;73.50;;;;;;4978726;28;19916;-64
2022/02/19 05:17:10;;;;;;;;;;;13.40;73.50;;;;;;4978720;28;20248;-64
2022/02/19 05:19:36;;;;;;;;;;;13.40;73.50;;;;;;4977484;28;19909;-64
2022/02/19 05:22:02;;;;;;;;;;;13.40;73.40;;;;;;4978570;28;20205;-64
2022/02/19 05:24:27;;;;;;;;;;;13.40;74.20;;;;;;4978596;28;19914;-64
2022/02/19 05:26:53;;;;;;;;;;;13.50;73.30;;;;;;4978599;28;19910;-64
2022/02/19 05:29:18;;;;;;;;;;;13.40;73.30;;;;;;4978474;28;19917;-64
2022/02/19 05:31:44;;;;;;;;;;;13.40;73.30;;;;;;4978445;28;19909;-63
2022/02/19 05:34:09;;;;;;;;;;;13.40;73.10;;;;;;4978422;28;19902;-64
2022/02/19 05:36:35;;;;;;;;;;;13.40;73.10;;;;;;4978436;28;20141;-64
2022/02/19 05:39:02;;;;;;;;;;;13.50;73.20;;;;;;4978442;28;19902;-64
2022/02/19 05:41:28;;;;;;;;;;;13.50;73.00;;;;;;4978117;28;19929;-64
2022/02/19 05:43:54;;;;;;;;;;;13.40;73.20;;;;;;4978324;28;19917;-64
2022/02/19 05:46:19;;;;;;;;;;;13.50;73.10;;;;;;4978311;28;19903;-64
2022/02/19 05:48:45;;;;;;;;;;;13.40;73.00;;;;;;4978232;28;19972;-64
2022/02/19 05:51:11;;;;;;;;;;;13.40;73.10;;;;;;4978205;28;19902;-64
2022/02/19 05:53:36;;;;;;;;;;;13.40;73.10;;;;;;4978221;28;19902;-64
2022/02/19 05:56:02;;;;;;;;;;;13.50;73.00;;;;;;4978261;28;19910;-64
2022/02/19 05:58:27;;;;;;;;;;;13.40;73.00;;;;;;4976883;28;19917;-64
2022/02/19 06:00:53;;;;;;;;;;;13.50;73.30;;;;;;4978065;28;19910;-64
2022/02/19 06:03:19;;;;;;;;;;;13.40;73.10;;;;;;4978109;28;19910;-64
2022/02/19 06:05:44;;;;;;;;;;;13.40;73.30;;;;;;4978078;28;19902;-64
2022/02/19 06:08:10;;;;;;;;;;;13.50;73.10;;;;;;4978076;28;19902;-64
2022/02/19 06:10:35;;;;;;;;;;;13.40;73.00;;;;;;4977966;28;19902;-64
2022/02/19 06:13:01;;;;;;;;;;;13.40;72.90;;;;;;4976816;28;20137;-64
2022/02/19 06:15:26;;;;;;;;;;;13.40;72.80;;;;;;4980653;28;19910;-64
2022/02/19 06:17:52;;;;;;;;;;;13.50;72.60;;;;;;4981436;28;19910;-64
2022/02/19 06:20:18;;;;;;;;;;;13.50;72.60;;;;;;4981345;28;19964;-63
2022/02/19 06:22:43;;;;;;;;;;;13.50;72.70;;;;;;4981255;28;19937;-64
2022/02/19 06:25:09;;;;;;;;;;;13.40;72.60;;;;;;4981252;28;20016;-64
2022/02/19 06:27:44;;;;;;;;;;;13.40;72.80;;;;;;4981231;28;19902;-64
2022/02/19 06:30:10;;;;;;;;;;;13.40;72.70;;;;;;4981203;28;19909;-66
2022/02/19 06:32:37;;;;;;;;;;;13.40;72.90;;;;;;4981077;28;20251;-64
2022/02/19 06:35:03;;;;;;;;;;;13.50;73.30;;;;;;4981066;28;20110;-64
2022/02/19 06:37:28;;;;;;;;;;;13.50;72.70;;;;;;4981095;28;19910;-64
2022/02/19 06:39:54;;;;;;;;;;;13.50;72.50;;;;;;4980995;28;19973;-63
2022/02/19 06:42:19;;;;;;;;;;;13.50;72.90;;;;;;4979816;28;20202;-64
2022/02/19 06:44:45;;;;;;;;;;;13.60;72.70;;;;;;4980956;28;19909;-64
2022/02/19 06:47:10;;;;;;;;;;;13.50;72.70;;;;;;4979856;28;19969;-64
2022/02/19 06:49:36;;;;;;;;;;;13.50;72.30;;;;;;4980825;28;19902;-64
2022/02/19 06:52:01;;;;;;;;;;;13.50;72.90;;;;;;4980893;28;19918;-64
2022/02/19 06:54:27;;;;;;;;;;;13.50;72.70;;;;;;4980822;28;19910;-64
2022/02/19 06:56:55;;;;;;;;;;;13.60;72.80;;;;;;4980760;28;20427;-64
2022/02/19 06:59:21;;;;;;;;;;;13.50;72.20;;;;;;4980774;28;20209;-64
2022/02/19 07:01:46;;;;;;;;;;;13.60;72.50;;;;;;4980649;28;19969;-64
2022/02/19 07:04:15;;;;;;;;;;;13.60;72.20;;;;;;4980658;28;19914;-64
2022/02/19 07:06:40;;;;;;;;;;;13.60;72.80;;;;;;4980603;28;19940;-64
2022/02/19 07:09:06;;;;;;;;;;;13.60;72.40;;;;;;4980565;28;19906;-65
2022/02/19 07:11:32;;;;;;;;;;;13.70;72.40;;;;;;4980621;28;19910;-64
2022/02/19 07:13:57;;;;;;;;;;;13.70;72.40;;;;;;4980456;28;20199;-64
2022/02/19 07:16:23;;;;;;;;;;;13.60;72.10;;;;;;4980495;28;19996;-64
2022/02/19 07:18:48;;;;;;;;;;;13.50;72.70;;;;;;4980480;28;20133;-64
2022/02/19 07:21:14;;;;;;;;;;;13.50;72.40;;;;;;4980296;28;19996;-64
2022/02/19 07:23:40;;;;;;;;;;;13.40;72.40;;;;;;4980379;28;20220;-63
2022/02/19 07:26:06;;;;;;;;;;;13.40;72.50;;;;;;4979479;28;19902;-63
2022/02/19 07:28:31;;;;;;;;;;;13.40;72.80;;;;;;4980313;28;19902;-64
2022/02/19 07:30:57;;;;;;;;;;;13.40;72.40;;;;;;4980252;28;19955;-64
2022/02/19 07:33:22;;;;;;;;;;;13.50;72.50;;;;;;4980269;28;19924;-64
2022/02/19 07:35:48;;;;;;;;;;;13.40;72.50;;;;;;4980224;28;19910;-64
2022/02/19 07:38:14;;;;;;;;;;;13.40;72.40;;;;;;4980189;28;20270;-64
2022/02/19 07:40:39;;;;;;;;;;;13.40;72.70;;;;;;4980196;28;19965;-64
2022/02/19 07:43:05;;;;;;;;;;;13.40;72.60;;;;;;4980065;28;19995;-64
2022/02/19 07:45:31;;;;;;;;;;;13.40;72.60;;;;;;4980135;28;19909;-64
2022/02/19 07:47:56;;;;;;;;;;;13.40;72.70;;;;;;4980044;28;19902;-64
2022/02/19 07:58:35;;;;;;;;;;;13.40;72.80;;;;;;4979901;28;19925;-66
2022/02/19 08:01:08;;;;;;;;;;;13.40;72.70;;;;;;4979841;28;20186;-65
2022/02/19 08:03:34;;;;;;;;;;;13.40;72.40;;;;;;4979828;28;20152;-65
2022/02/19 08:05:59;;;;;;;;;;;13.40;72.60;;;;;;4979834;28;19938;-64
2022/02/19 08:08:25;;;;;;;;;;;13.30;72.60;;;;;;4979738;28;20098;-64
2022/02/19 08:10:51;;;;;;;;;;;13.30;72.70;;;;;;4979752;28;19902;-65
2022/02/19 08:13:18;;;;;;;;;;;13.40;72.90;;;;;;4979669;28;20173;-64
2022/02/19 08:15:49;;;;;;;;;;;13.30;72.50;;;;;;4979638;28;19917;-64
2022/02/19 08:18:15;;;;;;;;;;;13.30;72.70;;;;;;4979872;28;20093;-64
2022/02/19 08:20:43;;;;;;;;;;;13.30;72.70;;;;;;4979612;28;19929;-64
2022/02/19 08:23:10;;;;;;;;;;;13.40;72.70;;;;;;4979551;28;19914;-64
2022/02/19 08:25:36;;;;;;;;;;;13.40;72.60;;;;;;4979520;28;20136;-63
2022/02/19 08:28:05;;;;;;;;;;;13.40;72.40;;;;;;4979536;28;19938;-64
2022/02/19 08:30:34;;;;;;;;;;;13.30;72.60;;;;;;4979514;28;19973;-64
2022/02/19 08:32:59;;;;;;;;;;;13.30;72.70;;;;;;4979438;28;19902;-64
2022/02/19 08:35:25;;;;;;;;;;;13.30;72.90;;;;;;4979361;28;19937;-64
2022/02/19 08:37:51;;;;;;;;;;;13.30;72.60;;;;;;4979348;28;19965;-64
2022/02/19 08:40:16;;;;;;;;;;;13.30;72.60;;;;;;4979296;28;19909;-64
2022/02/19 08:42:42;;;;;;;;;;;13.30;72.90;;;;;;4979065;28;19922;-64
2022/02/19 08:45:09;;;;;;;;;;;13.30;72.80;;;;;;4979255;28;20118;-64
2022/02/19 08:47:34;;;;;;;;;;;13.30;72.80;;;;;;4979191;28;19906;-64
2022/02/19 08:50:04;;;;;;;;;;;13.40;72.80;;;;;;4979392;28;19924;-63
2022/02/19 08:52:30;;;;;;;;;;;13.40;72.50;;;;;;4979167;28;19940;-63
2022/02/19 08:54:55;;;;;;;;;;;13.40;72.60;;;;;;4979093;28;19902;-63
2022/02/19 08:57:21;;;;;;;;;;;13.40;72.40;;;;;;4979062;28;19902;-63
2022/02/19 08:59:46;;;;;;;;;;;13.40;73.00;;;;;;4979016;28;20220;-63
2022/02/19 09:02:12;;;;;;;;;;;13.40;72.50;;;;;;4978996;28;19959;-63
2022/02/19 09:04:38;;;;;;;;;;;13.30;72.60;;;;;;4978932;28;20350;-63
2022/02/19 09:07:03;;;;;;;;;;;13.40;72.70;;;;;;4978965;28;20313;-64
2022/02/19 09:09:29;;;;;;;;;;;13.30;72.40;;;;;;4978903;28;19910;-65
2022/02/19 09:11:55;;;;;;;;;;;13.40;73.00;;;;;;4978877;28;19944;-63
2022/02/19 09:14:20;;;;;;;;;;;13.40;72.30;;;;;;4978843;28;20214;-63
2022/02/19 09:16:46;;;;;;;;;;;13.30;72.50;;;;;;4978770;28;19990;-63
2022/02/19 09:19:12;;;;;;;;;;;13.40;72.70;;;;;;4978808;28;19910;-63
2022/02/19 09:21:40;;;;;;;;;;;13.50;72.60;;;;;;4978954;28;19988;-63
2022/02/19 09:24:06;;;;;;;;;;;13.40;72.30;;;;;;4978730;28;19906;-64
2022/02/19 09:26:31;;;;;;;;;;;13.30;72.40;;;;;;4978810;28;20190;-64
2022/02/19 09:28:57;;;;;;;;;;;13.30;72.50;;;;;;4978646;28;19917;-64
2022/02/19 09:31:22;;;;;;;;;;;13.30;72.60;;;;;;4978654;28;19910;-64
2022/02/19 09:33:49;;;;;;;;;;;13.30;72.90;;;;;;4977620;28;20043;-63
2022/02/19 09:36:15;;;;;;;;;;;13.30;72.50;;;;;;4978609;28;19976;-63
2022/02/19 09:38:41;;;;;;;;;;;13.30;72.50;;;;;;4978497;28;19902;-64
2022/02/19 09:41:07;;;;;;;;;;;13.30;72.50;;;;;;4978293;28;19906;-64
2022/02/19 09:43:34;;;;;;;;;;;13.30;72.60;;;;;;4978399;28;19910;-64
2022/02/19 09:46:01;;;;;;;;;;;13.30;72.40;;;;;;4978506;28;20098;-64
2022/02/19 09:48:27;;;;;;;;;;;13.30;72.40;;;;;;4977924;28;19941;-63
2022/02/19 09:50:54;;;;;;;;;;;13.30;72.40;;;;;;4978272;28;19910;-64
2022/02/19 09:53:20;;;;;;;;;;;13.30;72.50;;;;;;4978648;28;20098;-64
2022/02/19 09:55:45;;;;;;;;;;;13.30;72.60;;;;;;4977044;28;19903;-64
2022/02/19 09:58:11;;;;;;;;;;;13.30;72.50;;;;;;4978333;28;19909;-64
2022/02/19 10:00:42;;;;;;;;;;;13.30;72.60;;;;;;4978241;28;19910;-64
2022/02/19 10:03:17;;;;;;;;;;;13.30;72.50;;;;;;4978353;28;19914;-64
2022/02/19 10:05:43;;;;;;;;;;;13.30;72.60;;;;;;4978242;28;20006;-63
2022/02/19 10:08:09;;;;;;;;;;;13.20;72.60;;;;;;4978471;28;19925;-63
2022/02/19 10:10:37;;;;;;;;;;;13.30;72.70;;;;;;4978315;28;19961;-63
2022/02/19 10:13:03;;;;;;;;;;;13.20;72.60;;;;;;4978148;28;20110;-63
2022/02/19 10:15:45;;;;;;;;;;;13.30;72.70;;;;;;4978081;28;19910;-64
2022/02/19 10:18:23;;;;;;;;;;;13.20;72.70;;;;;;4978291;28;19902;-64
2022/02/19 10:20:52;;;;;;;;;;;13.30;72.70;;;;;;4978043;28;19910;-64
2022/02/19 10:23:18;;;;;;;;;;;13.30;72.60;;;;;;4977878;28;19914;-64
2022/02/19 10:25:58;;;;;;;;;;;13.30;72.70;;;;;;4977956;28;19917;-64
2022/02/19 10:28:24;;;;;;;;;;;13.30;72.50;;;;;;4977914;28;19910;-64
2022/02/19 10:30:49;;;;;;;;;;;13.30;72.50;;;;;;4977929;28;19943;-64
2022/02/19 10:33:22;;;;;;;;;;;13.30;72.50;;;;;;4977824;28;19994;-64
2022/02/19 10:35:47;;;;;;;;;;;13.30;72.50;;;;;;4977892;28;19918;-64
2022/02/19 10:38:15;;;;;;;;;;;13.30;72.40;;;;;;4977828;28;19933;-64
2022/02/19 10:40:43;;;;;;;;;;;13.30;72.30;;;;;;4977759;28;20250;-64
2022/02/19 10:43:10;;;;;;;;;;;13.30;72.90;;;;;;4977975;28;20004;-64
2022/02/19 10:45:36;;;;;;;;;;;13.30;72.30;;;;;;4977940;28;19906;-64
2022/02/19 10:48:15;;;;;;;;;;;13.30;72.40;;;;;;4977760;28;20001;-64
2022/02/19 10:50:45;;;;;;;;;;;13.30;72.40;;;;;;4977966;28;19909;-64
2022/02/19 10:53:19;;;;;;;;;;;13.30;72.30;;;;;;4977690;28;20102;-64
2022/02/19 10:55:45;;;;;;;;;;;13.30;72.40;;;;;;4977771;28;20206;-64
2022/02/19 10:58:10;;;;;;;;;;;13.30;72.40;;;;;;4977571;28;19925;-64
2022/02/19 11:00:36;;;;;;;;;;;13.30;72.40;;;;;;4977583;28;20106;-64
2022/02/19 11:03:03;;;;;;;;;;;13.30;72.20;;;;;;4980836;28;19948;-64
2022/02/19 11:05:29;;;;;;;;;;;13.40;72.30;;;;;;4980708;28;20222;-64
2022/02/19 11:07:56;;;;;;;;;;;13.30;72.20;;;;;;4980770;28;19902;-63
2022/02/19 11:10:22;;;;;;;;;;;13.30;72.20;;;;;;4980793;28;19902;-63
2022/02/19 11:12:48;;;;;;;;;;;13.30;72.30;;;;;;4980673;28;19968;-64
2022/02/19 11:15:14;;;;;;;;;;;13.30;72.20;;;;;;4980679;28;19917;-65
2022/02/19 11:17:40;;;;;;;;;;;13.30;72.20;;;;;;4980693;28;19902;-64
2022/02/19 11:20:08;;;;;;;;;;;13.40;72.10;;;;;;4980570;28;20265;-64
2022/02/19 11:22:34;;;;;;;;;;;13.40;72.00;;;;;;4980491;28;20031;-64
2022/02/19 11:25:01;;;;;;;;;;;13.30;72.10;;;;;;4980626;28;19902;-64
2022/02/19 11:27:27;;;;;;;;;;;13.30;72.20;;;;;;4980571;28;19908;-63
2022/02/19 11:29:54;;;;;;;;;;;13.30;72.90;;;;;;4980497;28;19978;-63
2022/02/19 11:32:20;;;;;;;;;;;13.30;72.40;;;;;;4979324;28;20090;-64
2022/02/19 11:34:49;;;;;;;;;;;13.30;72.20;;;;;;4980415;28;20214;-64
2022/02/19 11:37:17;;;;;;;;;;;13.30;72.20;;;;;;4980351;28;19944;-63
2022/02/19 11:40:02;;;;;;;;;;;13.30;72.30;;;;;;4980425;28;19909;-64
2022/02/19 11:43:06;;;;;;;;;;;13.30;72.30;;;;;;4980152;28;20262;-64
2022/02/19 11:45:32;;;;;;;;;;;13.30;72.40;;;;;;5040044;28;20033;-64
2022/02/19 11:48:07;;;;;;;;;;;13.30;72.30;;;;;;4991294;28;19910;-64
2022/02/19 11:50:33;;;;;;;;;;;13.30;72.20;;;;;;4980249;28;19909;-64
2022/02/19 11:53:09;;;;;;;;;;;13.30;72.20;;;;;;4980191;28;19948;-65
2022/02/19 11:55:35;;;;;;;;;;;13.30;72.00;;;;;;4980155;28;19937;-63
2022/02/19 11:58:01;;;;;;;;;;;13.30;72.10;;;;;;4980109;28;20190;-63
2022/02/19 12:00:50;;;;;;;;;;;13.30;72.10;;;;;;4980091;28;19902;-64
2022/02/19 12:03:20;;;;;;;;;;;13.40;72.10;;;;;;4987424;28;19912;-63
2022/02/19 12:06:05;;;;;;;;;;;13.40;71.90;;;;;;4979997;28;19902;-63
2022/02/19 12:08:56;;;;;;;;;;;13.40;71.90;;;;;;4979947;28;19917;-64
2022/02/19 12:11:23;;;;;;;;;;;13.40;71.90;;;;;;4978415;28;19910;-64
2022/02/19 12:13:50;;;;;;;;;;;13.40;71.80;;;;;;4979691;28;20134;-64
2022/02/19 12:16:28;;;;;;;;;;;13.40;71.70;;;;;;4979828;28;20406;-64
2022/02/19 12:18:56;;;;;;;;;;;13.50;71.50;;;;;;4979735;28;20092;-63
2022/02/19 12:21:33;;;;;;;;;;;13.50;71.60;;;;;;4979810;28;19906;-64
2022/02/19 12:24:25;;;;;;;;;;;13.50;71.60;;;;;;4979716;28;20110;-64
2022/02/19 12:26:54;;;;;;;;;;;13.50;71.50;;;;;;4979728;28;20194;-63
2022/02/19 12:29:33;;;;;;;;;;;13.50;71.60;;;;;;4979612;28;20168;-64
2022/02/19 12:32:20;;;;;;;;;;;13.50;71.50;;;;;;4979549;28;19910;-63
2022/02/19 12:34:48;;;;;;;;;;;13.50;71.50;;;;;;4979484;28;20395;-64
2022/02/19 12:37:14;;;;;;;;;;;13.50;71.50;;;;;;4979499;28;20202;-64
2022/02/19 12:39:44;;;;;;;;;;;13.60;71.60;;;;;;4979496;28;19908;-64
2022/02/19 12:42:16;;;;;;;;;;;13.60;71.30;;;;;;4979227;28;19969;-64
2022/02/19 12:44:42;;;;;;;;;;;13.60;71.20;;;;;;4979964;28;19968;-63
2022/02/19 12:47:08;;;;;;;;;;;13.60;71.10;;;;;;4979312;28;20253;-64
2022/02/19 12:49:33;;;;;;;;;;;13.60;71.10;;;;;;4979336;28;19910;-64
2022/02/19 12:52:00;;;;;;;;;;;13.60;71.10;;;;;;4979246;28;19944;-64
2022/02/19 12:54:39;;;;;;;;;;;13.60;71.10;;;;;;4979199;28;20343;-64
2022/02/19 12:57:06;;;;;;;;;;;13.60;71.00;;;;;;4979147;28;19902;-64
2022/02/19 12:59:33;;;;;;;;;;;13.60;71.10;;;;;;4979157;28;19902;-64
2022/02/19 13:02:00;;;;;;;;;;;13.60;71.20;;;;;;4979012;28;19918;-64
2022/02/19 13:04:35;;;;;;;;;;;13.60;71.10;;;;;;4979053;28;20437;-64
2022/02/19 13:07:01;;;;;;;;;;;13.60;71.20;;;;;;4979110;28;20257;-64
2022/02/19 13:09:27;;;;;;;;;;;13.60;71.10;;;;;;4978955;28;20125;-64
2022/02/19 13:11:53;;;;;;;;;;;13.70;70.80;;;;;;4978967;28;20255;-64
2022/02/19 13:14:20;;;;;;;;;;;13.70;70.70;;;;;;4978891;28;19910;-65
2022/02/19 13:16:56;;;;;;;;;;;13.70;70.80;;;;;;4978862;28;19908;-64
2022/02/19 13:19:22;;;;;;;;;;;13.70;70.60;;;;;;4977768;28;19902;-65
2022/02/19 13:21:47;;;;;;;;;;;13.80;70.60;;;;;;4978718;28;20087;-64
2022/02/19 13:24:16;;;;;;;;;;;13.80;70.30;;;;;;4977948;28;19938;-65
2022/02/19 13:26:42;;;;;;;;;;;13.80;70.30;;;;;;4978794;28;19902;-64
2022/02/19 13:29:07;;;;;;;;;;;13.90;70.40;;;;;;4978698;28;19944;-64
2022/02/19 13:31:33;;;;;;;;;;;13.90;70.40;;;;;;4978734;28;19917;-65
2022/02/19 13:33:59;;;;;;;;;;;13.90;70.10;;;;;;4978673;28;20105;-64
2022/02/19 13:36:27;;;;;;;;;;;14.00;70.00;;;;;;4978572;28;19902;-65
2022/02/19 13:38:52;;;;;;;;;;;14.00;70.00;;;;;;4978606;28;19917;-65
2022/02/19 13:41:18;;;;;;;;;;;14.10;69.90;;;;;;4978460;28;19945;-65
2022/02/19 13:43:57;;;;;;;;;;;14.10;69.70;;;;;;4978439;28;19963;-65
2022/02/19 13:46:23;;;;;;;;;;;14.20;69.50;;;;;;4978514;28;19951;-65
2022/02/19 13:48:52;;;;;;;;;;;14.30;69.20;;;;;;4978494;28;20016;-64
2022/02/19 13:51:18;;;;;;;;;;;14.30;69.90;;;;;;4978377;28;19981;-65
2022/02/19 13:53:44;;;;;;;;;;;14.20;69.40;;;;;;4978339;28;19981;-64
2022/02/19 13:56:11;;;;;;;;;;;14.20;69.40;;;;;;4978356;28;19909;-64
2022/02/19 13:58:47;;;;;;;;;;;14.20;69.40;;;;;;4978309;28;19937;-64
2022/02/19 14:01:13;;;;;;;;;;;14.20;69.50;;;;;;4978207;28;19914;-64
2022/02/19 14:03:45;;;;;;;;;;;14.20;69.30;;;;;;4978219;28;20106;-64
2022/02/19 14:06:37;;;;;;;;;;;14.30;69.20;;;;;;4978251;28;19941;-65
2022/02/19 14:09:22;;;;;;;;;;;14.30;69.10;;;;;;4978233;28;19910;-64
2022/02/19 14:11:57;;;;;;;;;;;14.30;69.10;;;;;;4978121;28;19918;-64
2022/02/19 14:14:25;;;;;;;;;;;14.30;69.00;;;;;;4978097;28;19910;-64
2022/02/19 14:17:00;;;;;;;;;;;14.20;69.20;;;;;;4977697;28;19906;-63
2022/02/19 14:19:26;;;;;;;;;;;14.20;69.30;;;;;;4978063;28;19902;-64
2022/02/19 14:22:11;;;;;;;;;;;14.20;69.40;;;;;;4978021;28;19913;-64
2022/02/19 14:24:55;;;;;;;;;;;14.20;69.60;;;;;;4977989;28;19902;-64